sensor_id;sensor_type;location;lat;lon;timestamp;temperature;humidity
14093;DHT22;7123;49.468;10.992;2023-11-18T02:40:43;5.80;99.90
14093;DHT22;7123;49.468;10.992;2023-11-18T02:43:12;5.90;99.90
14093;DHT22;7123;49.468;10.992;2023-11-18T02:45:39;6.00;99.90
14093;DHT22;7123;49.468;10.992;2023-11-18T02:48:08;6.00;99.90
14093;DHT22;7123;49.468;10.992;2023-11-18T02:50:35;6.10;99.90
14093;DHT22;7123;49.468;10.992;2023-11-18T02:53:03;6.10;99.90
14093;DHT22;7123;49.468;10.992;2023-11-18T02:55:29;6.20;99.90
14093;DHT22;7123;49.468;10.992;2023-11-18T02:57:57;6.20;99.90
14093;DHT22;7123;49.468;10.992;2023-11-18T03:00:24;6.30;99.90
14093;DHT22;7123;49.468;10.992;2023-11-18T03:02:51;6.30;99.90
14093;DHT22;7123;49.468;10.992;2023-11-18T03:05:21;6.40;99.90
14093;DHT22;7123;49.468;10.992;2023-11-18T03:07:48;6.40;99.90
14093;DHT22;7123;49.468;10.992;2023-11-18T03:10:21;6.40;99.90
14093;DHT22;7123;49.468;10.992;2023-11-18T03:12:53;6.40;99.90
14093;DHT22;7123;49.468;10.992;2023-11-18T03:15:21;6.40;99.90
14093;DHT22;7123;49.468;10.992;2023-11-18T03:17:49;6.50;99.90
14093;DHT22;7123;49.468;10.992;2023-11-18T03:20:18;6.50;99.90
14093;DHT22;7123;49.468;10.992;2023-11-18T03:22:46;6.40;99.90
14093;DHT22;7123;49.468;10.992;2023-11-18T03:25:13;6.50;99.90
14093;DHT22;7123;49.468;10.992;2023-11-18T03:27:40;6.50;99.90
14093;DHT22;7123;49.468;10.992;2023-11-18T03:30:08;6.50;99.90
14093;DHT22;7123;49.468;10.992;2023-11-18T03:32:35;6.50;99.90
14093;DHT22;7123;49.468;10.992;2023-11-18T03:35:03;6.50;99.90
14093;DHT22;7123;49.468;10.992;2023-11-18T03:37:36;6.50;99.90
14093;DHT22;7123;49.468;10.992;2023-11-18T03:40:13;6.50;99.90
14093;DHT22;7123;49.468;10.992;2023-11-18T03:42:41;6.50;99.90
14093;DHT22;7123;49.468;10.992;2023-11-18T03:45:08;6.50;99.90
14093;DHT22;7123;49.468;10.992;2023-11-18T03:47:36;6.50;99.90
14093;DHT22;7123;49.468;10.992;2023-11-18T03:50:03;6.50;99.90
14093;DHT22;7123;49.468;10.992;2023-11-18T03:52:29;6.50;99.90
14093;DHT22;7123;49.468;10.992;2023-11-18T03:54:56;6.50;99.90
14093;DHT22;7123;49.468;10.992;2023-11-18T03:57:23;6.50;99.90
14093;DHT22;7123;49.468;10.992;2023-11-18T03:59:50;6.50;99.90
14093;DHT22;7123;49.468;10.992;2023-11-18T04:02:17;6.60;99.90
14093;DHT22;7123;49.468;10.992;2023-11-18T04:04:44;6.60;99.90
14093;DHT22;7123;49.468;10.992;2023-11-18T04:07:11;6.50;99.90
14093;DHT22;7123;49.468;10.992;2023-11-18T04:09:37;6.50;99.90
14093;DHT22;7123;49.468;10.992;2023-11-18T04:12:04;6.50;99.90
14093;DHT22;7123;49.468;10.992;2023-11-18T04:14:31;6.50;99.90
14093;DHT22;7123;49.468;10.992;2023-11-18T04:16:59;6.50;99.90
14093;DHT22;7123;49.468;10.992;2023-11-18T04:19:26;6.50;99.90
14093;DHT22;7123;49.468;10.992;2023-11-18T04:21:53;6.50;99.90
14093;DHT22;7123;49.468;10.992;2023-11-18T04:24:20;6.50;99.90
14093;DHT22;7123;49.468;10.992;2023-11-18T04:26:46;6.50;99.90
14093;DHT22;7123;49.468;10.992;2023-11-18T04:29:15;6.50;99.90
14093;DHT22;7123;49.468;10.992;2023-11-18T04:31:41;6.50;99.90
14093;DHT22;7123;49.468;10.992;2023-11-18T04:34:08;6.60;99.90
14093;DHT22;7123;49.468;10.992;2023-11-18T04:36:35;6.50;99.90
14093;DHT22;7123;49.468;10.992;2023-11-18T04:39:02;6.60;99.90
14093;DHT22;7123;49.468;10.992;2023-11-18T04:41:30;6.60;99.90
14093;DHT22;7123;49.468;10.992;2023-11-18T04:43:58;6.60;99.90
14093;DHT22;7123;49.468;10.992;2023-11-18T04:46:25;6.60;99.90
14093;DHT22;7123;49.468;10.992;2023-11-18T04:48:52;6.60;99.90
14093;DHT22;7123;49.468;10.992;2023-11-18T04:51:21;6.60;99.90
14093;DHT22;7123;49.468;10.992;2023-11-18T04:53:48;6.60;99.90
14093;DHT22;7123;49.468;10.992;2023-11-18T04:56:15;6.60;99.90
14093;DHT22;7123;49.468;10.992;2023-11-18T04:58:45;6.50;99.90
14093;DHT22;7123;49.468;10.992;2023-11-18T05:01:14;6.50;99.90
14093;DHT22;7123;49.468;10.992;2023-11-18T05:03:41;6.50;99.90
14093;DHT22;7123;49.468;10.992;2023-11-18T05:06:08;6.50;99.90
14093;DHT22;7123;49.468;10.992;2023-11-18T05:08:35;6.40;99.90
14093;DHT22;7123;49.468;10.992;2023-11-18T05:11:03;6.40;99.90
14093;DHT22;7123;49.468;10.992;2023-11-18T05:13:31;6.40;99.90
14093;DHT22;7123;49.468;10.992;2023-11-18T05:16:00;6.40;99.90
14093;DHT22;7123;49.468;10.992;2023-11-18T05:18:27;6.40;99.90
14093;DHT22;7123;49.468;10.992;2023-11-18T05:20:56;6.40;99.90
14093;DHT22;7123;49.468;10.992;2023-11-18T05:23:23;6.40;99.90
14093;DHT22;7123;49.468;10.992;2023-11-18T05:25:50;6.40;99.90
14093;DHT22;7123;49.468;10.992;2023-11-18T05:28:17;6.40;99.90
14093;DHT22;7123;49.468;10.992;2023-11-18T05:30:44;6.40;99.90
14093;DHT22;7123;49.468;10.992;2023-11-18T05:33:11;6.40;99.90
14093;DHT22;7123;49.468;10.992;2023-11-18T05:35:44;6.40;99.90
14093;DHT22;7123;49.468;10.992;2023-11-18T05:38:16;6.40;99.90
14093;DHT22;7123;49.468;10.992;2023-11-18T05:40:45;6.40;99.90
14093;DHT22;7123;49.468;10.992;2023-11-18T05:43:30;6.30;99.90
14093;DHT22;7123;49.468;10.992;2023-11-18T05:46:04;6.30;99.90
14093;DHT22;7123;49.468;10.992;2023-11-18T05:48:52;6.30;99.90
14093;DHT22;7123;49.468;10.992;2023-11-18T05:51:25;6.30;99.90
14093;DHT22;7123;49.468;10.992;2023-11-18T05:53:52;6.30;99.90
14093;DHT22;7123;49.468;10.992;2023-11-18T05:56:19;6.30;99.90
14093;DHT22;7123;49.468;10.992;2023-11-18T05:58:49;6.30;99.90
14093;DHT22;7123;49.468;10.992;2023-11-18T06:01:16;6.30;99.90
14093;DHT22;7123;49.468;10.992;2023-11-18T06:03:43;6.30;99.90
14093;DHT22;7123;49.468;10.992;2023-11-18T06:06:11;6.30;99.90
14093;DHT22;7123;49.468;10.992;2023-11-18T06:08:39;6.30;99.90
14093;DHT22;7123;49.468;10.992;2023-11-18T06:11:11;6.30;99.90
14093;DHT22;7123;49.468;10.992;2023-11-18T06:13:51;6.30;99.90
14093;DHT22;7123;49.468;10.992;2023-11-18T06:16:22;6.30;99.90
14093;DHT22;7123;49.468;10.992;2023-11-18T06:18:54;6.30;99.90
14093;DHT22;7123;49.468;10.992;2023-11-18T06:21:23;6.30;99.90
14093;DHT22;7123;49.468;10.992;2023-11-18T06:23:51;6.30;99.90
14093;DHT22;7123;49.468;10.992;2023-11-18T06:26:18;6.30;99.90
14093;DHT22;7123;49.468;10.992;2023-11-18T06:28:47;6.30;99.90
14093;DHT22;7123;49.468;10.992;2023-11-18T06:31:15;6.30;99.90
14093;DHT22;7123;49.468;10.992;2023-11-18T06:33:42;6.30;99.90
14093;DHT22;7123;49.468;10.992;2023-11-18T06:38:41;6.30;99.90
14093;DHT22;7123;49.468;10.992;2023-11-18T06:41:08;6.30;99.90
14093;DHT22;7123;49.468;10.992;2023-11-18T06:43:40;6.30;99.90
14093;DHT22;7123;49.468;10.992;2023-11-18T06:46:30;6.30;99.90
14093;DHT22;7123;49.468;10.992;2023-11-18T06:49:02;6.30;99.90
14093;DHT22;7123;49.468;10.992;2023-11-18T06:51:35;6.30;99.90
14093;DHT22;7123;49.468;10.992;2023-11-18T06:54:04;6.30;99.90
14093;DHT22;7123;49.468;10.992;2023-11-18T06:56:39;6.30;99.90
14093;DHT22;7123;49.468;10.992;2023-11-18T06:59:13;6.20;99.90
14093;DHT22;7123;49.468;10.992;2023-11-18T07:01:42;6.20;99.90
14093;DHT22;7123;49.468;10.992;2023-11-18T07:04:11;6.20;99.90
14093;DHT22;7123;49.468;10.992;2023-11-18T07:06:38;6.20;99.90
14093;DHT22;7123;49.468;10.992;2023-11-18T07:09:08;6.20;99.90
14093;DHT22;7123;49.468;10.992;2023-11-18T07:11:40;6.20;99.90
14093;DHT22;7123;49.468;10.992;2023-11-18T07:14:11;6.20;99.90
14093;DHT22;7123;49.468;10.992;2023-11-18T07:16:39;6.20;99.90
14093;DHT22;7123;49.468;10.992;2023-11-18T07:19:07;6.20;99.90
14093;DHT22;7123;49.468;10.992;2023-11-18T07:21:34;6.30;99.90
14093;DHT22;7123;49.468;10.992;2023-11-18T07:24:01;6.30;99.90
14093;DHT22;7123;49.468;10.992;2023-11-18T07:26:30;6.30;99.90
14093;DHT22;7123;49.468;10.992;2023-11-18T07:28:57;6.30;99.90
14093;DHT22;7123;49.468;10.992;2023-11-18T07:31:24;6.30;99.90
14093;DHT22;7123;49.468;10.992;2023-11-18T07:33:51;6.30;99.90
14093;DHT22;7123;49.468;10.992;2023-11-18T07:36:19;6.30;99.90
14093;DHT22;7123;49.468;10.992;2023-11-18T07:38:48;6.30;99.90
14093;DHT22;7123;49.468;10.992;2023-11-18T07:41:16;6.30;99.90
14093;DHT22;7123;49.468;10.992;2023-11-18T07:43:58;6.30;99.90
14093;DHT22;7123;49.468;10.992;2023-11-18T07:46:25;6.30;99.90
14093;DHT22;7123;49.468;10.992;2023-11-18T07:48:52;6.30;99.90
14093;DHT22;7123;49.468;10.992;2023-11-18T07:51:20;6.30;99.90
14093;DHT22;7123;49.468;10.992;2023-11-18T07:53:50;6.30;99.90
14093;DHT22;7123;49.468;10.992;2023-11-18T07:56:17;6.30;99.90
14093;DHT22;7123;49.468;10.992;2023-11-18T07:58:44;6.30;99.90
14093;DHT22;7123;49.468;10.992;2023-11-18T08:01:17;6.30;99.90
14093;DHT22;7123;49.468;10.992;2023-11-18T08:03:44;6.40;99.90
14093;DHT22;7123;49.468;10.992;2023-11-18T08:06:11;6.30;99.90
14093;DHT22;7123;49.468;10.992;2023-11-18T08:08:41;6.30;99.90
14093;DHT22;7123;49.468;10.992;2023-11-18T08:11:10;6.40;99.90
14093;DHT22;7123;49.468;10.992;2023-11-18T08:13:38;6.30;99.90
14093;DHT22;7123;49.468;10.992;2023-11-18T08:16:06;6.30;99.90
14093;DHT22;7123;49.468;10.992;2023-11-18T08:18:36;6.40;99.90
14093;DHT22;7123;49.468;10.992;2023-11-18T08:21:03;6.40;99.90
14093;DHT22;7123;49.468;10.992;2023-11-18T08:23:33;6.40;99.90
14093;DHT22;7123;49.468;10.992;2023-11-18T08:26:00;6.40;99.90
14093;DHT22;7123;49.468;10.992;2023-11-18T08:28:27;6.40;99.90
14093;DHT22;7123;49.468;10.992;2023-11-18T08:30:53;6.40;99.90
14093;DHT22;7123;49.468;10.992;2023-11-18T08:33:21;6.50;99.90
14093;DHT22;7123;49.468;10.992;2023-11-18T08:35:50;6.50;99.90
14093;DHT22;7123;49.468;10.992;2023-11-18T08:38:17;6.40;99.90
14093;DHT22;7123;49.468;10.992;2023-11-18T08:40:44;6.40;99.90
14093;DHT22;7123;49.468;10.992;2023-11-18T08:43:12;6.40;99.90
14093;DHT22;7123;49.468;10.992;2023-11-18T08:45:39;6.40;99.90
14093;DHT22;7123;49.468;10.992;2023-11-18T08:48:07;6.40;99.90
14093;DHT22;7123;49.468;10.992;2023-11-18T08:50:37;6.40;99.90
14093;DHT22;7123;49.468;10.992;2023-11-18T08:53:06;6.50;99.90
14093;DHT22;7123;49.468;10.992;2023-11-18T08:55:36;6.50;99.90
14093;DHT22;7123;49.468;10.992;2023-11-18T08:58:11;6.40;99.90
14093;DHT22;7123;49.468;10.992;2023-11-18T09:01:11;6.50;99.90
14093;DHT22;7123;49.468;10.992;2023-11-18T09:03:42;6.50;99.90
14093;DHT22;7123;49.468;10.992;2023-11-18T09:06:28;6.50;99.90
14093;DHT22;7123;49.468;10.992;2023-11-18T09:08:55;6.50;99.90
14093;DHT22;7123;49.468;10.992;2023-11-18T09:11:24;6.60;99.90
14093;DHT22;7123;49.468;10.992;2023-11-18T09:13:56;6.60;99.90
14093;DHT22;7123;49.468;10.992;2023-11-18T09:16:27;6.60;99.90
14093;DHT22;7123;49.468;10.992;2023-11-18T09:18:56;6.60;99.90
14093;DHT22;7123;49.468;10.992;2023-11-18T09:21:26;6.70;99.90
14093;DHT22;7123;49.468;10.992;2023-11-18T09:23:57;6.70;99.90
14093;DHT22;7123;49.468;10.992;2023-11-18T09:26:23;6.70;99.90
14093;DHT22;7123;49.468;10.992;2023-11-18T09:28:52;6.70;99.90
14093;DHT22;7123;49.468;10.992;2023-11-18T09:31:20;6.80;99.90
14093;DHT22;7123;49.468;10.992;2023-11-18T09:33:47;6.80;99.90
14093;DHT22;7123;49.468;10.992;2023-11-18T09:36:20;6.80;99.90
14093;DHT22;7123;49.468;10.992;2023-11-18T09:38:47;6.80;99.90
14093;DHT22;7123;49.468;10.992;2023-11-18T09:41:15;6.80;99.90
14093;DHT22;7123;49.468;10.992;2023-11-18T09:43:43;6.80;99.90
14093;DHT22;7123;49.468;10.992;2023-11-18T09:46:22;6.80;99.90
14093;DHT22;7123;49.468;10.992;2023-11-18T09:48:52;6.80;99.90
14093;DHT22;7123;49.468;10.992;2023-11-18T09:51:24;6.90;99.90
14093;DHT22;7123;49.468;10.992;2023-11-18T09:53:53;6.90;99.90
14093;DHT22;7123;49.468;10.992;2023-11-18T09:59:11;6.90;99.90
14093;DHT22;7123;49.468;10.992;2023-11-18T10:01:43;6.90;99.90
14093;DHT22;7123;49.468;10.992;2023-11-18T10:04:14;6.90;99.90
14093;DHT22;7123;49.468;10.992;2023-11-18T10:06:46;6.90;99.90
14093;DHT22;7123;49.468;10.992;2023-11-18T10:09:14;7.00;99.90
14093;DHT22;7123;49.468;10.992;2023-11-18T10:11:47;7.00;99.90
14093;DHT22;7123;49.468;10.992;2023-11-18T10:14:14;7.10;99.90
14093;DHT22;7123;49.468;10.992;2023-11-18T10:16:45;7.00;99.90
14093;DHT22;7123;49.468;10.992;2023-11-18T10:19:15;7.00;99.90
14093;DHT22;7123;49.468;10.992;2023-11-18T10:21:45;7.10;99.90
14093;DHT22;7123;49.468;10.992;2023-11-18T10:24:15;7.10;99.90
14093;DHT22;7123;49.468;10.992;2023-11-18T10:26:54;7.10;99.90
14093;DHT22;7123;49.468;10.992;2023-11-18T10:29:25;7.20;99.90
14093;DHT22;7123;49.468;10.992;2023-11-18T10:32:05;7.30;99.90
14093;DHT22;7123;49.468;10.992;2023-11-18T10:34:35;7.40;99.90
14093;DHT22;7123;49.468;10.992;2023-11-18T10:37:03;7.50;99.90
14093;DHT22;7123;49.468;10.992;2023-11-18T10:39:31;7.50;99.90
14093;DHT22;7123;49.468;10.992;2023-11-18T10:41:59;7.50;99.90
14093;DHT22;7123;49.468;10.992;2023-11-18T10:44:27;7.60;99.90
14093;DHT22;7123;49.468;10.992;2023-11-18T10:46:56;7.60;99.90
14093;DHT22;7123;49.468;10.992;2023-11-18T10:49:29;7.60;99.90
14093;DHT22;7123;49.468;10.992;2023-11-18T10:52:04;7.60;99.90
14093;DHT22;7123;49.468;10.992;2023-11-18T10:54:34;7.60;99.90
14093;DHT22;7123;49.468;10.992;2023-11-18T10:57:01;7.60;99.90
14093;DHT22;7123;49.468;10.992;2023-11-18T10:59:34;7.60;99.90
14093;DHT22;7123;49.468;10.992;2023-11-18T11:02:01;7.70;99.90
14093;DHT22;7123;49.468;10.992;2023-11-18T11:04:44;7.60;99.90
14093;DHT22;7123;49.468;10.992;2023-11-18T11:07:12;7.70;99.90
14093;DHT22;7123;49.468;10.992;2023-11-18T11:09:40;7.60;99.90
14093;DHT22;7123;49.468;10.992;2023-11-18T11:12:12;7.70;99.90
14093;DHT22;7123;49.468;10.992;2023-11-18T11:14:57;7.70;99.90
14093;DHT22;7123;49.468;10.992;2023-11-18T11:17:27;7.70;99.90
14093;DHT22;7123;49.468;10.992;2023-11-18T11:20:11;7.70;99.90
14093;DHT22;7123;49.468;10.992;2023-11-18T11:23:18;7.70;99.90
14093;DHT22;7123;49.468;10.992;2023-11-18T11:28:21;7.60;99.90
14093;DHT22;7123;49.468;10.992;2023-11-18T11:35:54;7.70;99.90
14093;DHT22;7123;49.468;10.992;2023-11-18T11:38:24;7.70;99.90
14093;DHT22;7123;49.468;10.992;2023-11-18T11:40:58;7.80;99.90
14093;DHT22;7123;49.468;10.992;2023-11-18T11:43:27;7.90;99.90
14093;DHT22;7123;49.468;10.992;2023-11-18T11:45:55;8.00;99.90
14093;DHT22;7123;49.468;10.992;2023-11-18T11:48:24;8.10;99.90
14093;DHT22;7123;49.468;10.992;2023-11-18T11:53:49;8.20;99.90
14093;DHT22;7123;49.468;10.992;2023-11-18T11:56:19;8.10;99.90
14093;DHT22;7123;49.468;10.992;2023-11-18T11:58:51;8.10;99.90
14093;DHT22;7123;49.468;10.992;2023-11-18T12:01:27;8.10;99.90
14093;DHT22;7123;49.468;10.992;2023-11-18T12:04:03;8.10;99.90
14093;DHT22;7123;49.468;10.992;2023-11-18T12:06:40;8.10;99.90
14093;DHT22;7123;49.468;10.992;2023-11-18T12:09:08;8.10;99.90
14093;DHT22;7123;49.468;10.992;2023-11-18T12:11:36;8.20;99.90
14093;DHT22;7123;49.468;10.992;2023-11-18T12:14:09;8.20;99.90
14093;DHT22;7123;49.468;10.992;2023-11-18T12:17:04;8.20;99.90
14093;DHT22;7123;49.468;10.992;2023-11-18T12:19:39;8.20;99.90
14093;DHT22;7123;49.468;10.992;2023-11-18T12:22:17;8.30;99.90
14093;DHT22;7123;49.468;10.992;2023-11-18T12:33:03;8.30;99.90
14093;DHT22;7123;49.468;10.992;2023-11-18T12:41:33;8.30;99.90
14093;DHT22;7123;49.468;10.992;2023-11-18T12:46:51;8.30;99.90
14093;DHT22;7123;49.468;10.992;2023-11-18T12:49:21;8.30;99.90
14093;DHT22;7123;49.468;10.992;2023-11-18T12:51:55;8.30;99.90
14093;DHT22;7123;49.468;10.992;2023-11-18T12:54:23;8.30;99.90
14093;DHT22;7123;49.468;10.992;2023-11-18T12:56:55;8.20;99.90
14093;DHT22;7123;49.468;10.992;2023-11-18T12:59:22;8.20;99.90
14093;DHT22;7123;49.468;10.992;2023-11-18T13:01:50;8.20;99.90
14093;DHT22;7123;49.468;10.992;2023-11-18T13:04:24;8.20;99.90
14093;DHT22;7123;49.468;10.992;2023-11-18T13:06:51;8.20;99.90
14093;DHT22;7123;49.468;10.992;2023-11-18T13:09:21;8.20;99.90
14093;DHT22;7123;49.468;10.992;2023-11-18T13:12:03;8.10;99.90
14093;DHT22;7123;49.468;10.992;2023-11-18T13:14:32;8.10;99.90
14093;DHT22;7123;49.468;10.992;2023-11-18T13:17:09;8.10;99.90
14093;DHT22;7123;49.468;10.992;2023-11-18T13:19:39;8.10;99.90
14093;DHT22;7123;49.468;10.992;2023-11-18T13:22:08;8.00;99.90
14093;DHT22;7123;49.468;10.992;2023-11-18T13:24:36;8.00;99.90
14093;DHT22;7123;49.468;10.992;2023-11-18T13:27:08;8.20;99.90
14093;DHT22;7123;49.468;10.992;2023-11-18T13:29:36;8.00;99.90
14093;DHT22;7123;49.468;10.992;2023-11-18T13:32:06;8.00;99.90
14093;DHT22;7123;49.468;10.992;2023-11-18T13:34:34;8.00;99.90
14093;DHT22;7123;49.468;10.992;2023-11-18T13:37:06;8.00;99.90
14093;DHT22;7123;49.468;10.992;2023-11-18T13:39:34;8.00;99.90
14093;DHT22;7123;49.468;10.992;2023-11-18T13:42:21;7.90;99.90
14093;DHT22;7123;49.468;10.992;2023-11-18T13:44:49;7.90;99.90
14093;DHT22;7123;49.468;10.992;2023-11-18T13:47:17;7.90;99.90
14093;DHT22;7123;49.468;10.992;2023-11-18T13:49:45;7.90;99.90
14093;DHT22;7123;49.468;10.992;2023-11-18T13:52:17;7.90;99.90
14093;DHT22;7123;49.468;10.992;2023-11-18T13:54:47;7.90;99.90
14093;DHT22;7123;49.468;10.992;2023-11-18T13:57:14;7.90;99.90
14093;DHT22;7123;49.468;10.992;2023-11-18T13:59:41;7.90;99.90
14093;DHT22;7123;49.468;10.992;2023-11-18T14:02:11;7.90;99.90
14093;DHT22;7123;49.468;10.992;2023-11-18T14:04:39;7.90;99.90
14093;DHT22;7123;49.468;10.992;2023-11-18T14:07:13;7.90;99.90
14093;DHT22;7123;49.468;10.992;2023-11-18T14:09:43;7.90;99.90
14093;DHT22;7123;49.468;10.992;2023-11-18T14:12:12;7.90;99.90
14093;DHT22;7123;49.468;10.992;2023-11-18T14:14:39;7.90;99.90
14093;DHT22;7123;49.468;10.992;2023-11-18T14:17:06;7.80;99.90
14093;DHT22;7123;49.468;10.992;2023-11-18T14:19:36;7.90;99.90
14093;DHT22;7123;49.468;10.992;2023-11-18T14:22:04;7.90;99.90
14093;DHT22;7123;49.468;10.992;2023-11-18T14:24:34;7.80;99.90
14093;DHT22;7123;49.468;10.992;2023-11-18T14:27:00;7.90;99.90
14093;DHT22;7123;49.468;10.992;2023-11-18T14:29:27;7.80;99.90
14093;DHT22;7123;49.468;10.992;2023-11-18T14:31:55;7.80;99.90
14093;DHT22;7123;49.468;10.992;2023-11-18T14:34:23;7.80;99.90
14093;DHT22;7123;49.468;10.992;2023-11-18T14:36:51;7.80;99.90
14093;DHT22;7123;49.468;10.992;2023-11-18T14:39:18;7.80;99.90
14093;DHT22;7123;49.468;10.992;2023-11-18T14:41:50;7.80;99.90
14093;DHT22;7123;49.468;10.992;2023-11-18T14:44:17;7.80;99.90
14093;DHT22;7123;49.468;10.992;2023-11-18T14:46:44;7.80;99.90
14093;DHT22;7123;49.468;10.992;2023-11-18T14:49:12;7.80;99.90
14093;DHT22;7123;49.468;10.992;2023-11-18T14:51:39;7.80;99.90
14093;DHT22;7123;49.468;10.992;2023-11-18T14:54:06;7.90;99.90
14093;DHT22;7123;49.468;10.992;2023-11-18T14:56:33;7.90;99.90
14093;DHT22;7123;49.468;10.992;2023-11-18T14:59:01;7.90;99.90
14093;DHT22;7123;49.468;10.992;2023-11-18T15:01:31;7.80;99.90
14093;DHT22;7123;49.468;10.992;2023-11-18T15:03:58;7.80;99.90
14093;DHT22;7123;49.468;10.992;2023-11-18T15:06:26;7.80;99.90
14093;DHT22;7123;49.468;10.992;2023-11-18T15:08:53;7.80;99.90
14093;DHT22;7123;49.468;10.992;2023-11-18T15:11:23;7.80;99.90
14093;DHT22;7123;49.468;10.992;2023-11-18T15:13:51;7.80;99.90
14093;DHT22;7123;49.468;10.992;2023-11-18T15:16:20;7.70;99.90
14093;DHT22;7123;49.468;10.992;2023-11-18T15:18:47;7.70;99.90
14093;DHT22;7123;49.468;10.992;2023-11-18T15:21:14;7.70;99.90
14093;DHT22;7123;49.468;10.992;2023-11-18T15:23:42;7.70;99.90
14093;DHT22;7123;49.468;10.992;2023-11-18T15:26:09;7.70;99.90
14093;DHT22;7123;49.468;10.992;2023-11-18T15:28:36;7.70;99.90
14093;DHT22;7123;49.468;10.992;2023-11-18T15:31:04;7.70;99.90
14093;DHT22;7123;49.468;10.992;2023-11-18T15:33:31;7.70;99.90
14093;DHT22;7123;49.468;10.992;2023-11-18T15:35:58;7.60;99.90
14093;DHT22;7123;49.468;10.992;2023-11-18T15:38:25;7.70;99.90
14093;DHT22;7123;49.468;10.992;2023-11-18T15:40:53;7.70;99.90
14093;DHT22;7123;49.468;10.992;2023-11-18T15:43:20;7.70;99.90
14093;DHT22;7123;49.468;10.992;2023-11-18T15:45:48;7.60;99.90
14093;DHT22;7123;49.468;10.992;2023-11-18T15:48:15;7.60;99.90
14093;DHT22;7123;49.468;10.992;2023-11-18T15:50:42;7.60;99.90
14093;DHT22;7123;49.468;10.992;2023-11-18T15:53:09;7.60;99.90
14093;DHT22;7123;49.468;10.992;2023-11-18T15:55:40;7.60;99.90
14093;DHT22;7123;49.468;10.992;2023-11-18T15:58:10;7.60;99.90
14093;DHT22;7123;49.468;10.992;2023-11-18T16:00:36;7.60;99.90
14093;DHT22;7123;49.468;10.992;2023-11-18T16:03:04;7.60;99.90
14093;DHT22;7123;49.468;10.992;2023-11-18T16:05:35;7.60;99.90
14093;DHT22;7123;49.468;10.992;2023-11-18T16:08:03;7.60;99.90
14093;DHT22;7123;49.468;10.992;2023-11-18T16:10:31;7.60;99.90
14093;DHT22;7123;49.468;10.992;2023-11-18T16:12:59;7.70;99.90
14093;DHT22;7123;49.468;10.992;2023-11-18T16:15:28;7.60;99.90
14093;DHT22;7123;49.468;10.992;2023-11-18T16:17:56;7.70;99.90
14093;DHT22;7123;49.468;10.992;2023-11-18T16:20:26;7.60;99.90
14093;DHT22;7123;49.468;10.992;2023-11-18T16:22:54;7.60;99.90
14093;DHT22;7123;49.468;10.992;2023-11-18T16:25:23;7.60;99.90
14093;DHT22;7123;49.468;10.992;2023-11-18T16:27:51;7.60;99.90
14093;DHT22;7123;49.468;10.992;2023-11-18T16:30:20;7.60;99.90
14093;DHT22;7123;49.468;10.992;2023-11-18T16:32:51;7.60;99.90
14093;DHT22;7123;49.468;10.992;2023-11-18T16:35:22;7.60;99.90
14093;DHT22;7123;49.468;10.992;2023-11-18T16:37:49;7.60;99.90
14093;DHT22;7123;49.468;10.992;2023-11-18T16:40:18;7.60;99.90
14093;DHT22;7123;49.468;10.992;2023-11-18T16:42:49;7.60;99.90
14093;DHT22;7123;49.468;10.992;2023-11-18T16:45:17;7.60;99.90
14093;DHT22;7123;49.468;10.992;2023-11-18T16:47:47;7.60;99.90
14093;DHT22;7123;49.468;10.992;2023-11-18T16:50:19;7.60;99.90
14093;DHT22;7123;49.468;10.992;2023-11-18T16:52:46;7.60;99.90
14093;DHT22;7123;49.468;10.992;2023-11-18T16:55:14;7.60;99.90
14093;DHT22;7123;49.468;10.992;2023-11-18T16:57:41;7.60;99.90
14093;DHT22;7123;49.468;10.992;2023-11-18T17:00:10;7.60;99.90
14093;DHT22;7123;49.468;10.992;2023-11-18T17:02:47;7.50;99.90
14093;DHT22;7123;49.468;10.992;2023-11-18T17:05:16;7.60;99.90
14093;DHT22;7123;49.468;10.992;2023-11-18T17:07:43;7.50;99.90
14093;DHT22;7123;49.468;10.992;2023-11-18T17:10:10;7.50;99.90
14093;DHT22;7123;49.468;10.992;2023-11-18T17:12:39;7.50;99.90
14093;DHT22;7123;49.468;10.992;2023-11-18T17:15:07;7.50;99.90
14093;DHT22;7123;49.468;10.992;2023-11-18T17:17:46;7.50;99.90
14093;DHT22;7123;49.468;10.992;2023-11-18T17:20:15;7.50;99.90
14093;DHT22;7123;49.468;10.992;2023-11-18T17:22:43;7.40;99.90
14093;DHT22;7123;49.468;10.992;2023-11-18T17:25:12;7.40;99.90
14093;DHT22;7123;49.468;10.992;2023-11-18T17:27:44;7.40;99.90
14093;DHT22;7123;49.468;10.992;2023-11-18T17:30:12;7.40;99.90
14093;DHT22;7123;49.468;10.992;2023-11-18T17:32:40;7.40;99.90
14093;DHT22;7123;49.468;10.992;2023-11-18T17:35:08;7.40;99.90
14093;DHT22;7123;49.468;10.992;2023-11-18T17:37:45;7.40;99.90
14093;DHT22;7123;49.468;10.992;2023-11-18T17:40:14;7.40;99.90
14093;DHT22;7123;49.468;10.992;2023-11-18T17:42:42;7.40;99.90
14093;DHT22;7123;49.468;10.992;2023-11-18T17:45:11;7.40;99.90
14093;DHT22;7123;49.468;10.992;2023-11-18T17:47:39;7.40;99.90
14093;DHT22;7123;49.468;10.992;2023-11-18T17:50:10;7.40;99.90
14093;DHT22;7123;49.468;10.992;2023-11-18T17:52:39;7.40;99.90
14093;DHT22;7123;49.468;10.992;2023-11-18T17:55:11;7.40;99.90
14093;DHT22;7123;49.468;10.992;2023-11-18T17:57:39;7.40;99.90
14093;DHT22;7123;49.468;10.992;2023-11-18T18:00:08;7.40;99.90
14093;DHT22;7123;49.468;10.992;2023-11-18T18:02:39;7.40;99.90
14093;DHT22;7123;49.468;10.992;2023-11-18T18:05:10;7.40;99.90
14093;DHT22;7123;49.468;10.992;2023-11-18T18:07:39;7.40;99.90
14093;DHT22;7123;49.468;10.992;2023-11-18T18:10:07;7.40;99.90
14093;DHT22;7123;49.468;10.992;2023-11-18T18:12:39;7.40;99.90
14093;DHT22;7123;49.468;10.992;2023-11-18T18:15:09;7.30;99.90
14093;DHT22;7123;49.468;10.992;2023-11-18T18:17:36;7.30;99.90
14093;DHT22;7123;49.468;10.992;2023-11-18T18:20:05;7.30;99.90
14093;DHT22;7123;49.468;10.992;2023-11-18T18:22:37;7.30;99.90
14093;DHT22;7123;49.468;10.992;2023-11-18T18:25:04;7.30;99.90
14093;DHT22;7123;49.468;10.992;2023-11-18T18:27:31;7.30;99.90
14093;DHT22;7123;49.468;10.992;2023-11-18T18:29:59;7.30;99.90
14093;DHT22;7123;49.468;10.992;2023-11-18T18:32:27;7.30;99.90
14093;DHT22;7123;49.468;10.992;2023-11-18T18:34:53;7.30;99.90
14093;DHT22;7123;49.468;10.992;2023-11-18T18:37:20;7.30;99.90
14093;DHT22;7123;49.468;10.992;2023-11-18T18:39:49;7.30;99.90
14093;DHT22;7123;49.468;10.992;2023-11-18T18:42:20;7.30;99.90
14093;DHT22;7123;49.468;10.992;2023-11-18T18:44:48;7.30;99.90
14093;DHT22;7123;49.468;10.992;2023-11-18T18:47:14;7.30;99.90
14093;DHT22;7123;49.468;10.992;2023-11-18T18:49:41;7.40;99.90
14093;DHT22;7123;49.468;10.992;2023-11-18T18:52:08;7.40;99.90
14093;DHT22;7123;49.468;10.992;2023-11-18T18:54:35;7.30;99.90
14093;DHT22;7123;49.468;10.992;2023-11-18T18:57:02;7.30;99.90
14093;DHT22;7123;49.468;10.992;2023-11-18T18:59:32;7.30;99.90
14093;DHT22;7123;49.468;10.992;2023-11-18T19:01:59;7.30;99.90
14093;DHT22;7123;49.468;10.992;2023-11-18T19:04:26;7.30;99.90
14093;DHT22;7123;49.468;10.992;2023-11-18T19:06:52;7.30;99.90
14093;DHT22;7123;49.468;10.992;2023-11-18T19:09:21;7.30;99.90
14093;DHT22;7123;49.468;10.992;2023-11-18T19:11:48;7.30;99.90